Time;durP1;ratioP1;P1;durP2;ratioP2;P2;SDS_P1;SDS_P2;PMS_P1;PMS_P2;Temp;Humidity;BMP_temperature;BMP_pressure;BME280_temperature;BME280_humidity;BME280_pressure;Samples;Min_cycle;Max_cycle;Signal;HPM_P1;HPM_P2
2022/11/07 00:00:29;;;;;;;29.30;13.20;;;;;;;8.32;80.53;99399.27;105620;1298;61353;-25
2022/11/07 00:02:56;;;;;;;21.80;9.70;;;;;;;8.14;81.15;99399.96;105699;1287;75940;-25
2022/11/07 00:05:24;;;;;;;27.00;11.60;;;;;;;8.53;80.92;99404.67;105698;1288;76374;-25
2022/11/07 00:07:51;;;;;;;23.80;11.70;;;;;;;8.94;79.45;99398.95;105608;1296;71338;-25
2022/11/07 00:10:18;;;;;;;21.80;11.30;;;;;;;8.92;78.97;99400.49;105704;1294;61189;-25
2022/11/07 00:12:45;;;;;;;28.00;12.50;;;;;;;8.72;79.50;99400.31;105641;1288;62548;-25
2022/11/07 00:15:12;;;;;;;25.90;12.90;;;;;;;8.46;80.37;99395.64;105728;1294;75876;-25
2022/11/07 00:17:40;;;;;;;19.50;8.60;;;;;;;8.18;81.34;99396.94;105653;1287;76340;-24
2022/11/07 00:20:08;;;;;;;24.70;12.30;;;;;;;8.34;81.93;99391.20;105612;1295;74938;-25
2022/11/07 00:22:35;;;;;;;23.20;9.10;;;;;;;8.60;80.97;99395.24;105599;1290;61382;-25
2022/11/07 00:25:02;;;;;;;22.20;11.20;;;;;;;8.55;80.95;99397.29;105651;1294;62136;-25
2022/11/07 00:27:31;;;;;;;23.10;11.40;;;;;;;8.34;81.17;99394.13;105718;1287;74618;-25
2022/11/07 00:30:00;;;;;;;15.60;7.70;;;;;;;8.12;81.75;99395.07;105553;1294;75243;-25
2022/11/07 00:32:30;;;;;;;19.60;10.00;;;;;;;8.26;82.59;99391.91;105566;1294;74734;-25
2022/11/07 00:35:00;;;;;;;21.60;10.50;;;;;;;8.67;81.27;99390.98;105555;1297;62686;-25
2022/11/07 00:37:29;;;;;;;28.20;12.10;;;;;;;8.66;80.64;99391.85;105568;1298;61360;-25
2022/11/07 00:40:00;;;;;;;21.70;10.00;;;;;;;8.50;81.12;99390.33;105574;1295;75891;-25
2022/11/07 00:42:30;;;;;;;25.20;10.60;;;;;;;8.23;81.85;99387.96;105598;1297;76442;-25
2022/11/07 00:45:00;;;;;;;15.40;7.90;;;;;;;8.05;82.67;99389.65;105587;1295;73925;-24
2022/11/07 00:47:29;;;;;;;21.10;10.00;;;;;;;8.45;82.50;99384.77;105601;1296;62592;-25
2022/11/07 00:49:59;;;;;;;22.10;9.40;;;;;;;8.81;81.22;99380.12;105570;1297;62400;-25
2022/11/07 00:52:29;;;;;;;23.30;11.70;;;;;;;8.75;80.92;99376.20;105575;1298;75930;-25
2022/11/07 00:54:58;;;;;;;22.10;11.30;;;;;;;8.56;81.09;99373.69;105588;1295;76335;-25
2022/11/07 00:57:28;;;;;;;25.80;11.10;;;;;;;8.27;81.93;99366.02;105562;1291;74613;-25
2022/11/07 00:59:57;;;;;;;18.90;10.90;;;;;;;8.13;82.85;99361.66;105486;1298;63828;-25
2022/11/07 01:02:27;;;;;;;15.20;8.00;;;;;;;8.53;82.56;99369.52;105596;1298;62662;-25
2022/11/07 01:05:09;;;;;;;27.10;10.80;;;;;;;8.68;81.45;99360.79;105553;1297;76006;-25
2022/11/07 01:07:39;;;;;;;19.40;9.70;;;;;;;8.51;81.72;99360.69;105597;1295;75261;-25
2022/11/07 01:10:08;;;;;;;21.20;9.10;;;;;;;8.28;82.23;99353.23;105592;1298;74828;-25
2022/11/07 01:12:39;;;;;;;14.90;8.20;;;;;;;8.09;83.33;99347.73;105537;1297;63326;-25
2022/11/07 01:15:09;;;;;;;21.50;11.30;;;;;;;8.42;82.90;99346.52;105593;1298;62127;-25
2022/11/07 01:17:38;;;;;;;23.40;11.30;;;;;;;8.58;82.14;99342.20;105554;1298;74316;-25
2022/11/07 01:20:08;;;;;;;22.30;11.20;;;;;;;8.43;82.10;99339.58;105565;1290;75181;-25
2022/11/07 01:22:38;;;;;;;24.60;10.60;;;;;;;8.16;83.08;99334.08;105581;1297;74118;-25
2022/11/07 01:25:08;;;;;;;19.10;9.20;;;;;;;8.06;83.97;99334.42;105565;1297;63637;-25
2022/11/07 01:35:15;;;;;;;18.70;8.40;;;;;;;8.13;83.47;99326.90;99157;1329;600185;-23
2022/11/07 01:37:43;;;;;;;19.20;8.70;;;;;;;8.09;84.18;99324.70;101630;1300;63598;-23
2022/11/07 01:40:11;;;;;;;20.20;8.90;;;;;;;8.55;83.04;99324.95;101909;1304;62677;-22
2022/11/07 01:42:38;;;;;;;20.70;10.60;;;;;;;8.59;82.47;99322.23;101878;1298;74936;-23
2022/11/07 01:45:06;;;;;;;22.70;11.20;;;;;;;8.43;82.57;99318.81;101846;1297;75832;-23
2022/11/07 01:47:36;;;;;;;19.90;9.60;;;;;;;8.13;83.48;99320.11;101825;1308;75358;-23
2022/11/07 01:50:04;;;;;;;21.20;8.90;;;;;;;8.08;84.28;99323.54;101077;1305;1180638;-23
2022/11/07 01:52:36;;;;;;;23.50;11.60;;;;;;;8.54;83.20;99323.61;101893;1304;61871;-23
2022/11/07 01:55:13;;;;;;;27.70;11.30;;;;;;;8.62;82.04;99318.75;102102;1298;73541;-23
2022/11/07 01:57:45;;;;;;;21.90;11.60;;;;;;;8.40;82.66;99319.02;102151;1301;76764;-22
2022/11/07 02:00:14;;;;;;;25.10;11.20;;;;;;;8.11;83.61;99315.38;101986;1292;75122;-23
2022/11/07 02:02:41;;;;;;;20.20;9.20;;;;;;;8.11;84.39;99318.70;101988;1301;63449;-23
2022/11/07 02:05:08;;;;;;;20.40;8.80;;;;;;;8.46;83.39;99318.65;102249;1302;63012;-23
2022/11/07 02:07:35;;;;;;;27.60;11.60;;;;;;;8.47;83.06;99313.48;102287;1294;75400;-23
2022/11/07 02:10:03;;;;;;;29.70;13.50;;;;;;;8.31;83.17;99315.98;102134;1295;76471;-23
2022/11/07 02:12:30;;;;;;;23.50;8.40;;;;;;;8.07;84.15;99314.27;102029;1302;75365;-23
2022/11/07 02:14:57;;;;;;;26.00;11.60;;;;;;;8.25;83.98;99310.17;102228;1302;61870;-23
2022/11/07 02:17:24;;;;;;;29.10;13.10;;;;;;;8.59;83.02;99314.66;102063;1291;62891;-23
2022/11/07 02:19:52;;;;;;;30.50;13.00;;;;;;;8.59;82.51;99310.18;102238;1293;75684;-22
2022/11/07 02:22:22;;;;;;;31.30;13.10;;;;;;;8.40;82.81;99313.11;101971;1296;76197;-23
2022/11/07 02:24:51;;;;;;;29.10;11.70;;;;;;;8.13;83.62;99308.15;102006;1302;73971;-23
2022/11/07 02:27:20;;;;;;;30.00;12.90;;;;;;;8.10;84.48;99307.67;102015;1304;64456;-23
2022/11/07 02:29:50;;;;;;;29.10;12.50;;;;;;;8.46;83.23;99312.39;101911;1298;61855;-23
2022/11/07 02:32:17;;;;;;;29.20;11.60;;;;;;;8.56;82.97;99311.91;101873;1302;74508;-23
2022/11/07 02:34:44;;;;;;;22.20;10.10;;;;;;;8.36;83.03;99309.08;101944;1300;75939;-23
2022/11/07 02:37:25;;;;;;;23.80;9.40;;;;;;;8.11;83.78;99308.86;101866;1304;75189;-23
2022/11/07 02:39:52;;;;;;;27.70;12.60;;;;;;;8.31;84.11;99306.95;101638;1303;62988;-24
2022/11/07 02:42:19;;;;;;;27.40;11.30;;;;;;;8.59;83.00;99306.84;101854;1304;62834;-23
2022/11/07 02:44:46;;;;;;;20.60;10.80;;;;;;;8.53;82.70;99308.09;101925;1302;75516;-23
2022/11/07 02:47:14;;;;;;;23.50;10.70;;;;;;;8.31;83.14;99309.23;101923;1304;76779;-24
2022/11/07 02:49:41;;;;;;;23.70;10.50;;;;;;;8.10;83.87;99307.19;101850;1304;73570;-24
2022/11/07 02:52:08;;;;;;;24.50;11.90;;;;;;;8.31;83.97;99306.85;101867;1301;61217;-23
2022/11/07 02:54:35;;;;;;;29.20;13.50;;;;;;;8.68;82.79;99305.70;101942;1302;61099;-24
2022/11/07 02:57:02;;;;;;;21.40;11.40;;;;;;;8.67;82.40;99310.30;101930;1304;75653;-24
2022/11/07 02:59:29;;;;;;;29.90;13.20;;;;;;;8.50;82.78;99310.61;101924;1304;76573;-27
2022/11/07 03:01:56;;;;;;;20.90;11.30;;;;;;;8.24;83.33;99307.83;101905;1296;73521;-27
2022/11/07 03:04:24;;;;;;;24.40;12.00;;;;;;;8.20;84.16;99311.50;101962;1305;63671;-27
2022/11/07 03:06:51;;;;;;;23.00;12.30;;;;;;;8.57;83.10;99315.83;101912;1304;61556;-27
2022/11/07 03:09:18;;;;;;;32.10;13.90;;;;;;;8.63;82.43;99315.77;101892;1304;75627;-25
2022/11/07 03:11:45;;;;;;;26.80;11.00;;;;;;;8.44;82.64;99323.04;101982;1303;76442;-25
2022/11/07 03:14:12;;;;;;;23.70;11.00;;;;;;;8.24;83.39;99321.65;101870;1297;75252;-23
2022/11/07 03:16:39;;;;;;;27.10;11.20;;;;;;;8.13;83.97;99322.55;101842;1304;64342;-23
2022/11/07 03:19:06;;;;;;;27.40;11.30;;;;;;;8.56;83.37;99323.17;101850;1304;61810;-23
2022/11/07 03:21:33;;;;;;;25.70;12.40;;;;;;;8.75;82.19;99327.91;101875;1303;75592;-23
2022/11/07 03:24:00;;;;;;;19.80;9.10;;;;;;;8.65;82.13;99321.17;101866;1304;77008;-23
2022/11/07 03:26:28;;;;;;;32.30;12.60;;;;;;;8.41;82.80;99326.01;101909;1304;74964;-23
2022/11/07 03:28:55;;;;;;;19.80;9.30;;;;;;;8.23;83.40;99322.39;101804;1302;63545;-24
2022/11/07 03:31:22;;;;;;;26.50;12.50;;;;;;;8.61;82.90;99321.61;101901;1304;62595;-24
2022/11/07 03:33:49;;;;;;;31.10;11.80;;;;;;;8.81;81.58;99316.48;101969;1302;75580;-24
2022/11/07 03:36:16;;;;;;;20.80;10.30;;;;;;;8.66;81.90;99313.98;102059;1294;77081;-24
2022/11/07 03:38:43;;;;;;;32.40;12.20;;;;;;;8.41;82.50;99314.83;101975;1298;73234;-24
2022/11/07 03:41:15;;;;;;;20.50;9.80;;;;;;;8.19;83.30;99314.67;101977;1302;63371;-24
2022/11/07 03:43:46;;;;;;;23.20;12.10;;;;;;;8.49;83.30;99311.70;102040;1296;62686;-23
2022/11/07 03:46:14;;;;;;;25.30;11.50;;;;;;;8.70;81.80;99309.04;101994;1296;75336;-23
2022/11/07 03:48:41;;;;;;;31.30;12.60;;;;;;;8.61;82.02;99309.14;101938;1305;76507;-24
2022/11/07 03:51:09;;;;;;;21.70;9.10;;;;;;;8.42;82.38;99310.09;102000;1303;75250;-24
2022/11/07 03:53:36;;;;;;;16.30;8.50;;;;;;;8.19;83.03;99313.98;102087;1302;64244;-24
2022/11/07 03:56:07;;;;;;;27.20;10.80;;;;;;;8.51;83.03;99312.23;101943;1301;61829;-23
2022/11/07 03:58:35;;;;;;;28.70;12.20;;;;;;;8.85;81.73;99312.36;102044;1305;75332;-24
2022/11/07 04:01:02;;;;;;;28.00;10.80;;;;;;;8.81;81.37;99310.89;102360;1298;76880;-24
2022/11/07 04:03:30;;;;;;;32.10;12.90;;;;;;;8.61;81.54;99309.86;102372;1296;74232;-24
2022/11/07 04:05:57;;;;;;;21.50;9.80;;;;;;;8.34;82.38;99310.25;102377;1298;62903;-23
2022/11/07 04:08:24;;;;;;;23.80;10.10;;;;;;;8.26;83.10;99310.63;102343;1299;61777;-23
2022/11/07 04:10:52;;;;;;;24.70;10.60;;;;;;;8.74;82.20;99309.79;102354;1284;74635;-24
2022/11/07 04:18:56;;;;;;;33.60;13.10;;;;;;;8.47;81.89;99304.03;102213;1299;61569;-23
2022/11/07 04:21:23;;;;;;;18.80;9.30;;;;;;;8.26;82.77;99306.66;102386;1299;62848;-24
2022/11/07 04:23:50;;;;;;;26.60;10.00;;;;;;;8.63;82.76;99307.46;102423;1298;75582;-23
2022/11/07 04:29:03;;;;;;;21.00;10.70;;;;;;;8.86;81.11;99310.04;102332;1299;73051;-24
2022/11/07 04:31:30;;;;;;;19.70;10.50;;;;;;;8.59;81.59;99302.33;102328;1298;61057;-23
2022/11/07 04:33:57;;;;;;;21.30;10.90;;;;;;;8.32;82.55;99301.58;102313;1299;62644;-23
2022/11/07 04:36:24;;;;;;;21.10;10.10;;;;;;;8.26;83.50;99297.29;102126;1292;74533;-23
2022/11/07 04:38:51;;;;;;;22.10;10.60;;;;;;;8.69;82.51;99298.20;102354;1292;76826;-24
2022/11/07 04:41:22;;;;;;;19.50;9.90;;;;;;;8.82;81.87;99291.08;102414;1291;73109;-23
2022/11/07 04:43:49;;;;;;;22.00;11.10;;;;;;;8.61;82.09;99287.85;102037;1300;62605;-24
2022/11/07 04:46:17;;;;;;;21.50;10.90;;;;;;;8.34;82.79;99286.52;102289;1292;61757;-24
2022/11/07 04:48:44;;;;;;;18.80;9.50;;;;;;;8.28;83.68;99281.94;102358;1299;74091;-24
2022/11/07 04:51:15;;;;;;;19.70;9.60;;;;;;;8.68;82.80;99284.45;102316;1299;76724;-24
2022/11/07 04:53:43;;;;;;;21.40;11.00;;;;;;;8.80;82.14;99279.30;102102;1294;74219;-24
2022/11/07 04:56:10;;;;;;;18.10;9.30;;;;;;;8.61;82.15;99276.95;102276;1298;61864;-24
2022/11/07 04:58:37;;;;;;;15.70;8.30;;;;;;;8.31;83.11;99274.31;102343;1299;62023;-25
2022/11/07 05:01:05;;;;;;;15.70;8.30;;;;;;;8.26;83.96;99274.77;102268;1299;73378;-25
2022/11/07 05:03:32;;;;;;;19.90;9.00;;;;;;;8.65;83.06;99278.25;102346;1294;76776;-25
2022/11/07 05:06:09;;;;;;;21.80;10.60;;;;;;;8.66;82.64;99284.90;102258;1302;75189;-23
2022/11/07 05:08:36;;;;;;;22.60;10.70;;;;;;;8.49;82.83;99282.97;102330;1299;63071;-23
2022/11/07 05:11:04;;;;;;;13.40;6.90;;;;;;;8.26;83.68;99288.64;102285;1299;61492;-22
2022/11/07 05:13:31;;;;;;;17.30;8.90;;;;;;;8.30;84.20;99290.31;102323;1299;75909;-25
2022/11/07 05:15:58;;;;;;;20.10;9.60;;;;;;;8.66;83.29;99294.06;102319;1299;76707;-23
2022/11/07 05:18:25;;;;;;;19.30;8.20;;;;;;;8.68;82.81;99296.71;102242;1299;74174;-23
2022/11/07 05:20:52;;;;;;;17.70;9.60;;;;;;;8.53;83.12;99297.56;102308;1299;62925;-23
2022/11/07 05:23:20;;;;;;;20.20;9.60;;;;;;;8.28;83.60;99304.62;102345;1290;61872;-23
2022/11/07 05:25:49;;;;;;;16.50;9.30;;;;;;;8.35;84.29;99305.19;102347;1290;75320;-22
2022/11/07 05:28:21;;;;;;;17.90;9.10;;;;;;;8.73;83.12;99308.85;102311;1300;76717;-23
2022/11/07 05:31:02;;;;;;;23.10;10.10;;;;;;;8.74;82.60;99311.36;102178;1299;75595;-23
2022/11/07 05:33:30;;;;;;;18.80;10.80;;;;;;;8.59;82.89;99309.31;102251;1299;63024;-23
2022/11/07 05:36:12;;;;;;;16.40;8.00;;;;;;;8.39;83.50;99309.91;102323;1292;61712;-23
2022/11/07 05:38:40;;;;;;;14.20;7.30;;;;;;;8.62;83.60;99315.49;102101;1297;74525;-22
2022/11/07 05:41:08;;;;;;;17.80;9.50;;;;;;;8.78;82.76;99318.70;102142;1298;75995;-23
2022/11/07 05:43:37;;;;;;;21.90;8.90;;;;;;;8.70;82.65;99323.61;102331;1298;75326;-23
2022/11/07 05:46:04;;;;;;;18.20;9.50;;;;;;;8.42;83.67;99326.15;102264;1298;61904;-23
2022/11/07 05:48:32;;;;;;;19.90;8.70;;;;;;;8.34;84.21;99326.73;102402;1300;62855;-22
2022/11/07 05:50:59;;;;;;;16.60;6.70;;;;;;;8.71;83.76;99329.77;102290;1299;75321;-22
2022/11/07 05:53:26;;;;;;;24.20;8.70;;;;;;;9.02;82.03;99329.52;102354;1301;76843;-22
2022/11/07 05:55:54;;;;;;;19.00;9.40;;;;;;;8.96;81.96;99331.64;102380;1296;75288;-23
2022/11/07 05:58:21;;;;;;;14.10;8.20;;;;;;;8.77;82.53;99331.08;102337;1297;61807;-22
2022/11/07 06:00:48;;;;;;;20.60;7.60;;;;;;;8.55;83.40;99336.21;102327;1298;63306;-23
2022/11/07 06:03:16;;;;;;;18.40;8.20;;;;;;;8.81;82.92;99335.77;102321;1299;76617;-23
2022/11/07 06:05:45;;;;;;;21.10;10.50;;;;;;;9.09;81.74;99338.06;102310;1300;76592;-22
2022/11/07 06:08:12;;;;;;;19.70;10.10;;;;;;;9.07;81.67;99337.65;102142;1298;74091;-23
2022/11/07 06:10:40;;;;;;;18.60;8.70;;;;;;;8.89;82.14;99334.92;102399;1298;63065;-23
2022/11/07 06:13:10;;;;;;;14.60;7.00;;;;;;;8.68;82.66;99336.88;102352;1302;61917;-23
2022/11/07 06:15:37;;;;;;;17.80;8.50;;;;;;;8.94;82.91;99336.62;102169;1299;75173;-23
2022/11/07 06:18:06;;;;;;;16.10;7.20;;;;;;;9.33;81.33;99338.95;102345;1298;76445;-23
2022/11/07 06:20:34;;;;;;;11.60;6.40;;;;;;;9.33;80.82;99337.73;102159;1298;75247;-22
2022/11/07 06:23:02;;;;;;;18.90;10.00;;;;;;;9.11;81.23;99335.98;102327;1299;61247;-23
2022/11/07 06:25:29;;;;;;;17.50;9.00;;;;;;;8.87;82.12;99336.26;102207;1302;62592;-23
2022/11/07 06:28:03;;;;;;;23.60;8.10;;;;;;;8.84;82.89;99339.77;102341;1298;74064;-22
2022/11/07 06:30:30;;;;;;;16.70;9.30;;;;;;;9.27;81.42;99341.57;102336;1297;75773;-23
2022/11/07 06:33:01;;;;;;;18.00;9.00;;;;;;;9.37;80.92;99342.45;102313;1299;75293;-23
2022/11/07 06:35:29;;;;;;;18.90;10.80;;;;;;;9.30;81.21;99346.77;102337;1299;62908;-23
2022/11/07 06:38:00;;;;;;;19.70;10.00;;;;;;;9.08;81.12;99346.79;102065;1301;61094;-22
2022/11/07 06:40:28;;;;;;;15.20;7.60;;;;;;;8.85;82.22;99345.72;102045;1301;76227;-23
2022/11/07 06:43:04;;;;;;;16.00;7.60;;;;;;;9.19;82.12;99348.06;102328;1299;76788;-22
2022/11/07 06:45:31;;;;;;;17.30;8.80;;;;;;;9.41;80.58;99347.04;102310;1300;75135;-24
2022/11/07 06:49:25;;;;;;;17.10;9.60;;;;;;;9.21;80.95;99343.05;99341;1332;600610;-23
2022/11/07 06:51:52;;;;;;;20.50;9.50;;;;;;;9.02;81.54;99340.25;101264;1312;61013;-23
2022/11/07 06:54:19;;;;;;;12.60;7.00;;;;;;;8.95;82.42;99340.19;101267;1314;62958;-25
2022/11/07 06:56:46;;;;;;;19.20;9.10;;;;;;;9.35;81.48;99339.82;101319;1315;75143;-24
2022/11/07 06:59:13;;;;;;;22.60;10.10;;;;;;;9.52;80.56;99338.40;101297;1304;75398;-24
2022/11/07 07:01:41;;;;;;;21.10;10.10;;;;;;;9.41;80.33;99334.92;101304;1315;74626;-24
2022/11/07 07:04:09;;;;;;;15.80;8.00;;;;;;;9.16;81.48;99338.20;100768;1302;1128843;-24
2022/11/07 07:06:37;;;;;;;17.80;9.40;;;;;;;9.02;82.09;99333.83;101370;1310;62888;-24
2022/11/07 07:09:05;;;;;;;17.40;8.80;;;;;;;9.33;81.73;99333.02;101395;1304;75063;-24
2022/11/07 07:11:36;;;;;;;25.60;10.80;;;;;;;9.50;80.45;99330.63;101376;1309;76935;-24
2022/11/07 07:14:04;;;;;;;14.80;7.10;;;;;;;9.42;80.93;99332.27;101387;1311;73494;-25
2022/11/07 07:16:37;;;;;;;;;;;;;;;9.18;81.24;99331.86;101202;1312;61823;-25
2022/11/07 07:19:04;;;;;;;21.10;8.10;;;;;;;9.06;82.29;99328.38;101312;1305;62569;-25
2022/11/07 07:21:32;;;;;;;16.50;9.40;;;;;;;9.37;81.16;99325.67;101338;1308;75800;-25
2022/11/07 07:23:59;;;;;;;14.80;8.50;;;;;;;9.44;80.84;99323.63;101266;1311;75683;-25
2022/11/07 07:26:27;;;;;;;19.30;9.00;;;;;;;9.34;81.16;99321.69;101366;1311;75236;-24
2022/11/07 07:28:54;;;;;;;16.90;7.70;;;;;;;9.23;81.30;99320.75;101347;1310;63680;-25
2022/11/07 07:31:29;;;;;;;13.70;7.90;;;;;;;9.20;82.31;99321.30;101210;1314;62823;-25
2022/11/07 07:33:56;;;;;;;13.40;7.10;;;;;;;9.64;80.81;99318.00;100988;1312;74605;-25
2022/11/07 07:36:24;;;;;;;15.70;9.50;;;;;;;9.54;80.23;99320.13;101062;1314;74985;-25
2022/11/07 07:38:51;;;;;;;16.30;9.00;;;;;;;9.38;80.92;99319.84;100979;1314;73537;-24
2022/11/07 07:41:18;;;;;;;15.40;7.00;;;;;;;9.20;81.81;99319.39;101223;1311;63372;-24
2022/11/07 07:43:45;;;;;;;19.30;8.40;;;;;;;9.42;81.61;99315.77;101271;1311;61685;-25
2022/11/07 07:46:15;;;;;;;24.40;8.10;;;;;;;9.49;80.89;99316.13;101316;1310;75512;-25
2022/11/07 07:48:42;;;;;;;14.00;7.40;;;;;;;9.67;80.27;99316.02;100878;1308;77131;-25
2022/11/07 07:51:09;;;;;;;17.60;9.10;;;;;;;9.48;80.54;99314.09;100962;1314;74268;-25
2022/11/07 07:53:36;;;;;;;12.90;7.30;;;;;;;9.23;81.40;99316.40;101318;1311;62726;-26
2022/11/07 07:56:06;;;;;;;10.70;6.40;;;;;;;9.42;81.64;99316.76;101342;1304;62846;-25
2022/11/07 07:58:33;;;;;;;16.40;8.00;;;;;;;9.74;80.24;99317.45;101235;1314;75640;-26
2022/11/07 08:01:00;;;;;;;12.40;6.00;;;;;;;9.81;79.77;99320.58;101256;1310;76718;-26
2022/11/07 08:03:28;;;;;;;16.50;9.20;;;;;;;9.62;80.53;99319.04;101266;1312;75093;-26
2022/11/07 08:06:15;;;;;;;11.20;5.50;;;;;;;9.45;81.06;99313.68;101156;1312;62925;-25
2022/11/07 08:08:42;;;;;;;18.70;8.60;;;;;;;9.61;81.07;99316.35;101275;1310;61887;-24
2022/11/07 08:11:09;;;;;;;17.30;7.60;;;;;;;9.89;80.17;99316.16;101226;1314;74335;-24
2022/11/07 08:13:36;;;;;;;14.40;6.70;;;;;;;9.82;80.07;99317.71;101322;1303;75683;-24
2022/11/07 08:16:06;;;;;;;16.50;9.10;;;;;;;9.72;80.04;99321.02;102048;1300;75212;-24
2022/11/07 08:18:35;;;;;;;13.90;7.20;;;;;;;9.52;80.73;99324.20;101931;1304;62915;-27
2022/11/07 08:21:02;;;;;;;16.10;7.30;;;;;;;9.52;81.40;99325.77;101967;1305;62684;-25
2022/11/07 08:23:30;;;;;;;19.20;8.20;;;;;;;9.95;80.45;99325.81;101916;1302;75580;-25
2022/11/07 08:25:58;;;;;;;16.60;8.50;;;;;;;9.98;79.90;99329.17;102085;1300;75376;-25
2022/11/07 08:28:26;;;;;;;19.20;9.70;;;;;;;9.85;79.82;99327.02;102027;1303;74036;-25
2022/11/07 08:30:58;;;;;;;18.70;9.70;;;;;;;9.72;80.46;99324.02;101983;1305;62693;-26
2022/11/07 08:33:25;;;;;;;17.50;8.50;;;;;;;9.51;81.30;99328.63;102023;1302;61680;-25
2022/11/07 08:35:54;;;;;;;19.40;8.20;;;;;;;9.67;81.09;99327.69;102024;1305;75492;-26
2022/11/07 08:38:22;;;;;;;11.40;6.00;;;;;;;9.72;80.86;99323.50;101965;1300;75741;-25
2022/11/07 08:40:49;;;;;;;13.10;7.90;;;;;;;9.53;81.29;99323.30;102072;1303;74028;-23
2022/11/07 08:43:17;;;;;;;13.60;7.10;;;;;;;9.39;82.14;99321.90;101974;1303;62887;-23
2022/11/07 08:45:45;;;;;;;13.40;7.10;;;;;;;9.55;82.25;99323.54;102009;1302;61264;-23
2022/11/07 08:48:12;;;;;;;22.00;7.50;;;;;;;9.77;81.20;99325.90;102045;1302;74540;-23
2022/11/07 08:50:40;;;;;;;21.00;8.50;;;;;;;9.68;81.03;99324.50;101925;1302;76767;-24
2022/11/07 08:53:07;;;;;;;9.90;6.20;;;;;;;9.57;81.79;99317.08;102122;1301;75089;-23
2022/11/07 08:55:34;;;;;;;9.80;6.00;;;;;;;9.68;81.58;99320.81;102276;1301;61173;-23
2022/11/07 08:58:04;;;;;;;19.60;9.20;;;;;;;9.93;81.00;99317.77;102135;1302;61104;-23
2022/11/07 09:00:31;;;;;;;19.00;10.20;;;;;;;9.87;80.84;99318.55;102106;1300;75319;-23
2022/11/07 09:03:03;;;;;;;15.80;7.80;;;;;;;9.67;81.51;99319.48;102127;1286;75810;-23
2022/11/07 09:05:50;;;;;;;12.90;7.50;;;;;;;9.63;82.34;99316.52;102059;1297;75407;-24
2022/11/07 09:08:18;;;;;;;13.30;6.80;;;;;;;10.12;81.19;99316.55;102184;1292;61711;-24
2022/11/07 09:10:45;;;;;;;11.80;7.00;;;;;;;10.20;79.89;99317.30;102141;1299;62864;-24
2022/11/07 09:13:13;;;;;;;14.80;8.10;;;;;;;9.95;80.67;99316.42;102177;1302;75643;-24
2022/11/07 09:15:41;;;;;;;14.40;7.70;;;;;;;9.79;81.50;99312.25;102264;1300;76729;-24
2022/11/07 09:18:15;;;;;;;8.80;5.50;;;;;;;9.99;81.39;99307.23;102134;1301;74041;-24
2022/11/07 09:20:42;;;;;;;14.40;7.30;;;;;;;10.13;80.38;99310.39;102130;1301;62859;-24
2022/11/07 09:23:09;;;;;;;9.70;6.50;;;;;;;10.07;80.44;99304.78;102097;1301;61513;-24
2022/11/07 09:25:36;;;;;;;11.10;6.10;;;;;;;9.89;81.02;99307.16;102121;1294;75252;-23
2022/11/07 09:28:04;;;;;;;12.90;7.10;;;;;;;9.83;82.05;99306.70;102105;1294;76558;-23
2022/11/07 09:30:31;;;;;;;15.70;8.90;;;;;;;10.25;80.85;99307.72;102208;1301;74989;-24
2022/11/07 09:32:58;;;;;;;11.70;7.00;;;;;;;10.45;79.49;99306.82;102216;1294;62511;-24
2022/11/07 09:35:26;;;;;;;15.30;7.20;;;;;;;10.23;79.95;99306.54;102252;1301;62728;-23
2022/11/07 09:37:53;;;;;;;19.10;7.10;;;;;;;9.88;81.46;99300.63;102164;1302;75306;-24
2022/11/07 09:40:31;;;;;;;13.90;8.00;;;;;;;10.12;82.24;99306.52;102165;1302;75833;-24
2022/11/07 09:43:09;;;;;;;12.20;7.50;;;;;;;10.50;79.94;99301.91;102140;1302;75224;-24
2022/11/07 09:45:41;;;;;;;13.70;6.90;;;;;;;10.33;80.09;99297.82;101960;1298;62876;-24
2022/11/07 09:48:14;;;;;;;11.50;6.30;;;;;;;10.13;80.47;99299.13;102186;1303;62832;-25
2022/11/07 09:50:41;;;;;;;9.10;5.90;;;;;;;9.96;81.76;99295.15;102103;1301;75456;-25
2022/11/07 09:53:30;;;;;;;9.90;4.50;;;;;;;10.14;81.01;99295.08;102209;1299;76702;-24
2022/11/07 09:56:02;;;;;;;12.70;6.50;;;;;;;10.33;79.90;99296.41;102172;1294;74299;-24
2022/11/07 09:58:35;;;;;;;15.80;7.40;;;;;;;10.27;80.25;99292.88;102108;1294;61632;-24
2022/11/07 10:01:05;;;;;;;18.20;8.70;;;;;;;10.08;81.28;99292.08;102059;1291;62681;-25
2022/11/07 10:03:34;;;;;;;12.50;7.30;;;;;;;10.07;81.44;99287.41;101841;1302;75340;-23
2022/11/07 10:06:10;;;;;;;11.30;6.40;;;;;;;10.40;79.95;99288.96;102092;1302;75810;-23
2022/11/07 10:09:12;;;;;;;14.30;6.80;;;;;;;10.42;79.66;99288.98;102048;1297;74706;-24
2022/11/07 10:11:43;;;;;;;14.40;8.80;;;;;;;10.08;80.82;99288.02;101711;1300;61205;-24
2022/11/07 10:14:37;;;;;;;8.90;5.40;;;;;;;9.86;82.04;99284.67;102072;1300;62589;-24
2022/11/07 10:17:30;;;;;;;12.30;7.30;;;;;;;10.14;80.74;99281.70;102065;1300;74588;-23
2022/11/07 10:20:03;;;;;;;10.10;6.20;;;;;;;10.18;80.50;99281.23;101974;1302;76653;-23
2022/11/07 10:22:42;;;;;;;9.60;5.10;;;;;;;10.10;80.49;99271.09;101965;1295;75263;-24
2022/11/07 10:25:18;;;;;;;9.80;4.90;;;;;;;10.05;80.82;99269.22;102026;1301;62126;-24
2022/11/07 10:28:13;;;;;;;13.80;6.10;;;;;;;10.19;79.63;99262.07;102035;1302;63024;-24
2022/11/07 10:30:46;;;;;;;7.90;5.10;;;;;;;10.20;79.74;99262.17;102164;1301;75653;-25
2022/11/07 10:33:26;;;;;;;6.70;4.40;;;;;;;9.92;80.44;99259.06;101915;1296;75808;-24
2022/11/07 10:36:02;;;;;;;10.60;6.40;;;;;;;10.05;80.76;99252.73;102040;1302;74270;-23
2022/11/07 10:38:31;;;;;;;9.80;6.30;;;;;;;10.30;79.05;99250.63;101910;1300;62571;-24
2022/11/07 10:40:58;;;;;;;11.60;4.90;;;;;;;10.33;78.80;99250.47;102050;1298;61202;-23
2022/11/07 10:43:32;;;;;;;11.40;6.40;;;;;;;10.12;79.41;99245.62;102224;1301;75275;-23
2022/11/07 10:46:04;;;;;;;13.80;7.50;;;;;;;9.84;80.02;99242.29;102041;1302;76699;-23
2022/11/07 10:48:32;;;;;;;11.80;7.80;;;;;;;10.02;79.74;99239.60;102086;1301;75227;-24
2022/11/07 10:50:59;;;;;;;7.80;4.70;;;;;;;10.16;79.13;99241.70;102057;1302;61797;-23
2022/11/07 10:53:26;;;;;;;11.80;7.40;;;;;;;10.01;79.08;99237.45;102062;1297;61373;-24
2022/11/07 10:55:54;;;;;;;12.80;7.20;;;;;;;9.75;80.04;99240.20;102142;1301;75711;-24
2022/11/07 10:58:22;;;;;;;14.50;7.40;;;;;;;9.99;79.78;99228.84;102120;1301;76483;-24
2022/11/07 11:01:15;;;;;;;12.70;8.00;;;;;;;10.15;78.75;99234.08;102231;1301;74184;-23
2022/11/07 11:03:47;;;;;;;16.70;9.00;;;;;;;10.01;79.21;99227.16;101910;1304;62827;-23
2022/11/07 11:06:17;;;;;;;8.40;5.10;;;;;;;9.90;79.64;99227.51;102024;1294;61686;-24
2022/11/07 11:08:45;;;;;;;12.00;6.90;;;;;;;9.84;80.31;99225.00;102231;1301;76480;-23
2022/11/07 11:11:33;;;;;;;11.90;7.40;;;;;;;10.00;79.49;99225.34;102119;1301;76738;-23
2022/11/07 11:14:11;;;;;;;10.70;5.20;;;;;;;10.01;79.87;99226.64;102036;1302;75417;-23
2022/11/07 11:16:39;;;;;;;13.60;6.90;;;;;;;9.97;79.72;99226.08;101993;1298;61903;-24
2022/11/07 11:19:19;;;;;;;10.50;5.60;;;;;;;10.16;79.34;99221.48;101971;1299;61902;-23
2022/11/07 11:21:46;;;;;;;8.50;6.20;;;;;;;10.41;77.98;99215.96;102089;1297;76413;-24
2022/11/07 11:24:30;;;;;;;9.00;6.40;;;;;;;10.17;78.49;99217.11;102272;1302;76521;-23
2022/11/07 11:27:09;;;;;;;9.10;5.50;;;;;;;10.02;79.08;99217.54;101897;1304;74292;-24
2022/11/07 11:29:42;;;;;;;12.20;5.90;;;;;;;9.90;79.91;99212.72;102115;1298;64373;-23
2022/11/07 11:32:17;;;;;;;9.50;6.20;;;;;;;10.39;77.70;99205.02;102138;1300;61246;-24
2022/11/07 11:35:18;;;;;;;16.10;7.50;;;;;;;10.43;77.35;99205.10;102178;1294;76401;-26
2022/11/07 11:37:49;;;;;;;12.80;7.10;;;;;;;10.19;77.59;99198.56;102109;1301;75763;-27
2022/11/07 11:40:18;;;;;;;14.50;6.60;;;;;;;9.88;78.98;99202.52;101985;1303;73920;-25
2022/11/07 11:43:03;;;;;;;9.10;6.00;;;;;;;10.03;78.93;99201.71;102134;1302;61649;-26
2022/11/07 11:45:42;;;;;;;11.10;6.60;;;;;;;10.37;77.54;99196.66;102166;1302;61871;-25
2022/11/07 11:48:29;;;;;;;11.20;7.20;;;;;;;10.04;78.81;99190.88;102099;1302;76406;-26
2022/11/07 11:50:59;;;;;;;8.00;5.60;;;;;;;9.97;79.06;99195.75;102117;1294;76791;-25